createdAt,value
2023-04-13T00:02:28.824Z,2.60
2023-04-13T00:04:57.738Z,2.47
2023-04-13T00:07:27.987Z,2.73
2023-04-13T00:09:55.445Z,2.37
2023-04-13T00:12:23.677Z,2.77
2023-04-13T00:14:51.369Z,3.10
2023-04-13T00:17:18.871Z,2.80
2023-04-13T00:19:48.044Z,2.40
2023-04-13T00:22:15.566Z,3.70
2023-04-13T00:24:44.184Z,2.67
2023-04-13T00:27:12.087Z,3.23
2023-04-13T00:29:39.533Z,3.40
2023-04-13T00:32:07.408Z,3.47
2023-04-13T00:34:34.910Z,2.63
2023-04-13T00:37:03.964Z,2.87
2023-04-13T00:39:31.445Z,3.57
2023-04-13T00:41:59.722Z,3.80
2023-04-13T00:44:28.449Z,3.57
2023-04-13T00:46:56.487Z,4.07
2023-04-13T00:49:24.244Z,4.17
2023-04-13T00:51:52.197Z,5.03
2023-04-13T00:54:22.168Z,4.90
2023-04-13T00:56:50.894Z,4.27
2023-04-13T00:59:18.452Z,5.00
2023-04-13T01:01:50.788Z,5.13
2023-04-13T01:04:20.293Z,5.60
2023-04-13T01:06:54.920Z,5.30
2023-04-13T01:09:31.868Z,5.00
2023-04-13T01:12:06.326Z,5.53
2023-04-13T01:14:38.645Z,5.80
2023-04-13T01:17:17.767Z,5.50
2023-04-13T01:19:53.847Z,6.37
2023-04-13T01:22:25.464Z,6.10
2023-04-13T01:25:09.132Z,6.17
2023-04-13T01:27:48.858Z,6.27
2023-04-13T01:30:21.917Z,6.03
2023-04-13T01:32:52.488Z,5.20
2023-04-13T01:35:22.615Z,5.70
2023-04-13T01:37:51.564Z,5.90
2023-04-13T01:40:21.255Z,6.07
2023-04-13T01:42:55.052Z,5.20
2023-04-13T01:45:25.901Z,5.70
2023-04-13T01:48:06.323Z,5.13
2023-04-13T01:51:01.645Z,5.67
2023-04-13T01:53:44.461Z,5.43
2023-04-13T01:56:19.104Z,4.67
2023-04-13T01:58:56.207Z,4.80
2023-04-13T02:01:24.030Z,5.00
2023-04-13T02:03:51.846Z,5.20
2023-04-13T02:06:20.731Z,5.00
2023-04-13T02:08:51.940Z,4.80
2023-04-13T02:11:20.199Z,4.80
2023-04-13T02:13:47.983Z,5.10
2023-04-13T02:16:21.332Z,3.90
2023-04-13T02:18:49.145Z,5.27
2023-04-13T02:21:17.168Z,5.10
2023-04-13T02:23:44.724Z,4.90
2023-04-13T02:26:14.127Z,5.20
2023-04-13T02:28:42.743Z,4.30
2023-04-13T02:31:10.320Z,4.13
2023-04-13T02:33:39.816Z,4.23
2023-04-13T02:36:08.385Z,5.07
2023-04-13T02:38:38.888Z,4.43
2023-04-13T02:41:12.788Z,3.97
2023-04-13T02:43:40.539Z,3.73
2023-04-13T02:46:08.754Z,4.20
2023-04-13T02:48:40.430Z,4.63
2023-04-13T02:51:09.844Z,4.67
2023-04-13T02:53:41.233Z,4.40
2023-04-13T02:56:10.543Z,4.17
2023-04-13T02:58:38.353Z,5.10
2023-04-13T03:01:11.679Z,5.07
2023-04-13T03:03:42.019Z,4.63
2023-04-13T03:06:10.459Z,3.97
2023-04-13T03:08:44.714Z,4.90
2023-04-13T03:11:18.568Z,4.40
2023-04-13T03:13:53.979Z,5.20
2023-04-13T03:16:21.604Z,4.83
2023-04-13T03:18:51.565Z,4.67
2023-04-13T03:21:19.127Z,3.90
2023-04-13T03:23:59.186Z,3.27
2023-04-13T03:26:27.000Z,4.00
2023-04-13T03:28:58.775Z,3.90
2023-04-13T03:31:28.170Z,4.23
2023-04-13T03:33:58.272Z,4.77
2023-04-13T03:36:27.422Z,4.53
2023-04-13T03:38:55.728Z,4.67
2023-04-13T03:41:25.437Z,4.30
2023-04-13T03:43:53.076Z,3.60
2023-04-13T03:46:20.714Z,3.60
2023-04-13T03:48:48.677Z,4.20
2023-04-13T03:51:22.079Z,4.67
2023-04-13T03:53:51.786Z,4.50
2023-04-13T03:56:23.815Z,3.67
2023-04-13T03:58:51.870Z,3.97
2023-04-13T04:01:24.177Z,3.40
2023-04-13T04:03:55.903Z,3.27
2023-04-13T04:06:27.069Z,3.30
2023-04-13T04:09:05.927Z,3.70
2023-04-13T04:11:38.368Z,3.07
2023-04-13T04:14:07.808Z,3.43
2023-04-13T04:16:35.875Z,2.50
2023-04-13T04:19:09.976Z,2.93
2023-04-13T04:21:38.993Z,3.07
2023-04-13T04:24:12.574Z,3.40
2023-04-13T04:26:50.259Z,3.10
2023-04-13T04:29:22.023Z,2.70
2023-04-13T04:31:55.932Z,3.20
2023-04-13T04:34:24.839Z,2.00
2023-04-13T04:36:54.014Z,2.73
2023-04-13T04:39:23.562Z,2.87
2023-04-13T04:42:03.997Z,2.27
2023-04-13T04:44:33.483Z,2.43
2023-04-13T04:47:05.836Z,2.57
2023-04-13T04:49:39.920Z,2.20
2023-04-13T04:52:12.303Z,2.17
2023-04-13T04:54:41.055Z,2.20
2023-04-13T04:57:10.484Z,1.97
2023-04-13T04:59:40.828Z,2.67
2023-04-13T05:02:08.845Z,1.77
2023-04-13T05:04:36.907Z,1.77
2023-04-13T05:07:05.471Z,2.10
2023-04-13T05:09:39.143Z,1.83
2023-04-13T05:12:07.917Z,1.67
2023-04-13T05:14:37.433Z,1.73
2023-04-13T05:17:06.022Z,1.37
2023-04-13T05:19:39.228Z,1.27
2023-04-13T05:22:22.109Z,1.50
2023-04-13T05:24:58.273Z,2.50
2023-04-13T05:27:26.648Z,1.70
2023-04-13T05:29:57.136Z,1.33
2023-04-13T05:32:26.142Z,1.10
2023-04-13T05:34:55.945Z,0.90
2023-04-13T05:37:27.066Z,1.30
2023-04-13T05:39:54.675Z,1.60
2023-04-13T05:42:29.939Z,1.07
2023-04-13T05:44:57.742Z,1.43
2023-04-13T05:47:27.281Z,1.53
2023-04-13T05:49:58.952Z,1.13
2023-04-13T05:52:26.482Z,1.40
2023-04-13T05:54:53.988Z,1.13
2023-04-13T05:57:22.347Z,0.90
2023-04-13T05:59:53.977Z,1.20
2023-04-13T06:02:27.008Z,1.00
2023-04-13T06:04:55.070Z,1.60
2023-04-13T06:07:23.416Z,1.20
2023-04-13T06:09:51.623Z,1.13
2023-04-13T06:12:19.354Z,1.20
2023-04-13T06:14:47.625Z,1.13
2023-04-13T06:17:16.476Z,0.97
2023-04-13T06:19:43.928Z,1.20
2023-04-13T06:22:11.635Z,0.87
2023-04-13T06:24:41.359Z,1.30
2023-04-13T06:27:11.132Z,1.60
2023-04-13T06:29:40.521Z,1.30
2023-04-13T06:32:10.811Z,1.07
2023-04-13T06:34:39.874Z,1.43
2023-04-13T06:37:08.344Z,1.27
2023-04-13T06:39:44.751Z,1.40
2023-04-13T06:42:13.545Z,1.33
2023-04-13T06:44:52.416Z,1.60
2023-04-13T06:47:20.988Z,1.30
2023-04-13T06:49:50.419Z,1.30
2023-04-13T06:52:18.191Z,1.20
2023-04-13T06:54:45.722Z,2.00
2023-04-13T06:57:29.573Z,1.03
2023-04-13T06:59:57.968Z,1.13
2023-04-13T07:02:26.862Z,1.20
2023-04-13T07:04:57.004Z,1.20
2023-04-13T07:07:24.621Z,1.00
2023-04-13T07:09:52.561Z,0.90
2023-04-13T07:12:21.299Z,1.17
2023-04-13T07:14:49.253Z,0.83
2023-04-13T07:17:20.155Z,0.90
2023-04-13T07:19:49.950Z,1.10
2023-04-13T07:22:19.659Z,1.10
2023-04-13T07:24:48.762Z,1.10
2023-04-13T07:27:19.434Z,1.20
2023-04-13T07:29:48.980Z,1.00
2023-04-13T07:32:21.267Z,0.70
2023-04-13T07:34:48.966Z,1.20
2023-04-13T07:37:17.024Z,0.87
2023-04-13T07:39:46.183Z,1.30
2023-04-13T07:42:13.793Z,1.07
2023-04-13T07:44:46.488Z,0.80
2023-04-13T07:47:14.387Z,1.10
2023-04-13T07:49:44.372Z,0.93
2023-04-13T07:52:15.735Z,1.00
2023-04-13T07:54:43.704Z,0.80
2023-04-13T07:57:14.041Z,0.90
2023-04-13T07:59:49.499Z,0.90
2023-04-13T08:02:18.344Z,1.40
2023-04-13T08:04:49.634Z,1.00
2023-04-13T08:07:23.073Z,1.20
2023-04-13T08:09:52.449Z,1.10
2023-04-13T08:12:22.955Z,1.30
2023-04-13T08:14:51.975Z,1.00
2023-04-13T08:17:20.084Z,1.10
2023-04-13T08:19:47.572Z,1.00
2023-04-13T08:22:15.816Z,1.03
2023-04-13T08:24:43.985Z,1.50
2023-04-13T08:27:11.509Z,0.90
2023-04-13T08:29:41.358Z,0.90
2023-04-13T08:32:09.084Z,1.00
2023-04-13T08:34:36.956Z,1.77
2023-04-13T08:37:04.531Z,0.97
2023-04-13T08:39:34.549Z,1.20
2023-04-13T08:42:02.679Z,0.87
2023-04-13T08:44:34.388Z,0.90
2023-04-13T08:47:04.650Z,1.27
2023-04-13T08:49:35.719Z,1.80
2023-04-13T08:52:23.181Z,2.23
2023-04-13T08:54:54.295Z,1.10
2023-04-13T08:57:29.910Z,3.67
2023-04-13T08:59:59.003Z,7.40
2023-04-13T09:02:33.520Z,3.90
2023-04-13T09:05:13.833Z,1.50
2023-04-13T09:07:43.554Z,1.10
2023-04-13T09:10:16.722Z,1.00
2023-04-13T09:12:47.849Z,3.20
2023-04-13T09:15:15.784Z,3.20
2023-04-13T09:17:54.176Z,1.40
2023-04-13T09:20:24.565Z,0.97
2023-04-13T09:22:53.427Z,1.87
2023-04-13T09:25:22.527Z,1.60
2023-04-13T09:27:51.949Z,0.90
2023-04-13T09:30:24.177Z,1.17
2023-04-13T09:33:05.792Z,1.33
2023-04-13T09:35:34.153Z,1.37
2023-04-13T09:38:02.615Z,1.20
2023-04-13T09:40:30.123Z,0.90
2023-04-13T09:42:59.251Z,1.10
2023-04-13T09:45:35.466Z,1.17
2023-04-13T09:48:04.660Z,1.23
2023-04-13T09:50:33.815Z,1.57
2023-04-13T09:53:02.097Z,0.90
2023-04-13T09:55:29.838Z,1.23
2023-04-13T09:57:57.546Z,1.00
2023-04-13T10:00:25.775Z,1.53
2023-04-13T10:02:53.853Z,1.80
2023-04-13T10:05:26.949Z,1.50
2023-04-13T10:07:56.191Z,1.87
2023-04-13T10:10:26.367Z,1.53
2023-04-13T10:12:57.435Z,1.53
2023-04-13T10:15:39.921Z,3.10
2023-04-13T10:18:17.329Z,8.13
2023-04-13T10:20:47.841Z,2.20
2023-04-13T10:23:15.592Z,1.60
2023-04-13T10:25:50.919Z,1.83
2023-04-13T10:28:18.856Z,1.33
2023-04-13T10:30:50.366Z,1.50
2023-04-13T10:33:20.452Z,1.30
2023-04-13T10:35:58.638Z,1.30
2023-04-13T10:38:27.561Z,1.87
2023-04-13T10:40:55.111Z,1.23
2023-04-13T10:43:27.517Z,1.80
2023-04-13T10:46:07.734Z,2.70
2023-04-13T10:48:35.465Z,1.57
2023-04-13T10:51:04.947Z,1.70
2023-04-13T10:53:34.279Z,1.10
2023-04-13T10:56:02.295Z,1.47
2023-04-13T10:58:33.128Z,1.43
2023-04-13T11:01:01.140Z,1.53
2023-04-13T11:03:29.672Z,1.73
2023-04-13T11:05:58.746Z,1.20
2023-04-13T11:08:27.834Z,1.83
2023-04-13T11:10:56.706Z,2.10
2023-04-13T11:13:26.566Z,1.70
2023-04-13T11:16:02.644Z,1.37
2023-04-13T11:18:30.298Z,1.73
2023-04-13T11:20:57.822Z,1.60
2023-04-13T11:23:26.785Z,1.47
2023-04-13T11:25:56.067Z,1.47
2023-04-13T11:28:24.046Z,1.80
2023-04-13T11:30:56.295Z,1.70
2023-04-13T11:33:27.905Z,1.23
2023-04-13T11:35:56.000Z,1.57
2023-04-13T11:38:24.181Z,1.57
2023-04-13T11:41:04.729Z,1.63
2023-04-13T11:43:41.913Z,1.37
2023-04-13T11:46:12.758Z,2.10
2023-04-13T11:48:40.746Z,1.70
2023-04-13T11:51:08.309Z,1.40
2023-04-13T11:53:38.644Z,1.50
2023-04-13T11:56:08.984Z,1.23
2023-04-13T11:58:38.518Z,1.60
2023-04-13T12:01:13.756Z,1.50
2023-04-13T12:06:17.557Z,1.40
2023-04-13T12:08:47.698Z,1.30
2023-04-13T12:14:06.457Z,1.47
2023-04-13T12:19:13.522Z,1.23
2023-04-13T12:21:52.623Z,1.60
2023-04-13T12:24:20.695Z,1.60
2023-04-13T12:29:23.092Z,1.60
2023-04-13T12:31:50.802Z,1.40
2023-04-13T12:34:18.654Z,1.70
2023-04-13T12:36:46.665Z,1.67
2023-04-13T12:39:14.492Z,1.40
2023-04-13T12:41:42.278Z,1.77
2023-04-13T12:44:11.308Z,1.87
2023-04-13T12:46:39.288Z,1.80
2023-04-13T12:49:06.858Z,2.00
2023-04-13T12:51:34.393Z,1.73
2023-04-13T12:54:01.842Z,1.90
2023-04-13T12:56:33.679Z,1.93
2023-04-13T12:59:01.817Z,1.90
2023-04-13T13:01:31.780Z,2.47
2023-04-13T13:03:59.437Z,2.10
2023-04-13T13:06:27.768Z,1.80
2023-04-13T13:08:55.355Z,1.77
2023-04-13T13:11:23.561Z,1.70
2023-04-13T13:13:51.124Z,2.00
2023-04-13T13:16:19.526Z,1.50
2023-04-13T13:18:51.180Z,1.97
2023-04-13T13:21:20.078Z,1.80
2023-04-13T13:23:47.630Z,2.03
2023-04-13T13:28:45.655Z,1.20
2023-04-13T13:31:13.265Z,1.80
2023-04-13T13:33:40.805Z,1.60
2023-04-13T13:36:10.844Z,1.80
2023-04-13T13:38:38.324Z,1.97
2023-04-13T13:41:06.300Z,1.57
2023-04-13T13:43:33.916Z,2.10
2023-04-13T13:46:01.606Z,1.80
2023-04-13T13:48:29.259Z,1.87
2023-04-13T13:51:13.882Z,1.83
2023-04-13T13:53:41.997Z,2.10
2023-04-13T13:56:09.574Z,2.03
2023-04-13T13:58:37.037Z,1.60
2023-04-13T14:01:05.448Z,2.00
2023-04-13T14:03:33.534Z,2.13
2023-04-13T14:06:01.484Z,2.90
2023-04-13T14:08:30.510Z,2.80
2023-04-13T14:10:58.807Z,4.37
2023-04-13T14:13:26.305Z,2.17
2023-04-13T14:15:54.014Z,4.07
2023-04-13T14:18:23.605Z,3.20
2023-04-13T14:20:51.562Z,3.90
2023-04-13T14:23:19.294Z,1.90
2023-04-13T14:25:49.521Z,2.03
2023-04-13T14:28:18.394Z,1.83
2023-04-13T14:30:46.086Z,2.03
2023-04-13T14:33:14.626Z,2.10
2023-04-13T14:35:42.104Z,1.87
2023-04-13T14:38:09.682Z,2.07
2023-04-13T14:40:37.236Z,2.27
2023-04-13T14:43:06.709Z,2.70
2023-04-13T14:45:34.236Z,2.10
2023-04-13T14:48:02.026Z,1.93
2023-04-13T14:50:29.865Z,1.93
2023-04-13T14:52:57.362Z,2.10
2023-04-13T14:55:24.889Z,2.30
2023-04-13T14:57:52.486Z,2.00
2023-04-13T15:00:26.388Z,2.17
2023-04-13T15:02:55.190Z,2.13
2023-04-13T15:05:23.325Z,2.40
2023-04-13T15:07:51.102Z,2.17
2023-04-13T15:10:18.977Z,3.10
2023-04-13T15:12:48.034Z,2.80
2023-04-13T15:15:15.864Z,2.80
2023-04-13T15:17:44.918Z,3.03
2023-04-13T15:20:12.606Z,2.83
2023-04-13T15:22:40.287Z,2.43
2023-04-13T15:25:08.396Z,2.23
2023-04-13T15:27:35.895Z,2.00
2023-04-13T15:30:04.008Z,2.50
2023-04-13T15:32:34.556Z,2.87
2023-04-13T15:35:03.683Z,2.10
2023-04-13T15:37:31.575Z,2.20
2023-04-13T15:39:59.135Z,2.10
2023-04-13T15:42:27.184Z,1.97
2023-04-13T15:44:55.212Z,1.60
2023-04-13T15:47:23.570Z,1.63
2023-04-13T15:49:51.266Z,1.50
2023-04-13T15:52:20.212Z,1.83
2023-04-13T15:54:47.915Z,1.70
2023-04-13T15:57:15.627Z,1.50
2023-04-13T15:59:43.121Z,1.63
2023-04-13T16:02:10.601Z,1.20
2023-04-13T16:04:38.330Z,1.43
2023-04-13T16:07:13.706Z,1.60
2023-04-13T16:09:44.866Z,1.60
2023-04-13T16:12:12.730Z,1.50
2023-04-13T16:14:41.918Z,2.30
2023-04-13T16:17:10.221Z,1.77
2023-04-13T16:19:38.256Z,1.93
2023-04-13T16:22:06.517Z,1.53
2023-04-13T16:24:34.544Z,1.60
2023-04-13T16:27:03.463Z,1.77
2023-04-13T16:29:32.443Z,2.20
2023-04-13T16:32:00.106Z,2.13
2023-04-13T16:34:28.727Z,1.80
2023-04-13T16:36:57.602Z,2.10
2023-04-13T16:39:25.299Z,2.13
2023-04-13T16:41:54.450Z,2.77
2023-04-13T16:44:23.357Z,2.33
2023-04-13T16:46:51.094Z,2.60
2023-04-13T16:49:20.089Z,2.30
2023-04-13T16:51:48.377Z,2.70
2023-04-13T16:54:17.829Z,2.47
2023-04-13T16:56:46.122Z,2.47
2023-04-13T16:59:13.755Z,2.50
2023-04-13T17:01:42.537Z,2.30
2023-04-13T17:04:10.186Z,2.53
2023-04-13T17:06:39.417Z,2.23
2023-04-13T17:09:07.014Z,3.33
2023-04-13T17:11:34.951Z,3.00
2023-04-13T17:14:02.512Z,2.07
2023-04-13T17:16:30.539Z,1.83
2023-04-13T17:18:59.697Z,1.30
2023-04-13T17:21:27.696Z,1.30
2023-04-13T17:23:55.184Z,1.60
2023-04-13T17:26:22.675Z,1.67
2023-04-13T17:28:50.253Z,1.90
2023-04-13T17:31:17.771Z,1.90
2023-04-13T17:33:45.500Z,1.30
2023-04-13T17:36:14.425Z,1.67
2023-04-13T17:38:42.047Z,1.70
2023-04-13T17:41:12.848Z,2.13
2023-04-13T17:43:40.922Z,2.00
2023-04-13T17:46:08.480Z,2.13
2023-04-13T17:48:36.047Z,2.30
2023-04-13T17:51:03.571Z,2.07
2023-04-13T17:53:32.646Z,1.80
2023-04-13T17:56:00.341Z,1.60
2023-04-13T17:58:27.985Z,1.77
2023-04-13T18:00:55.661Z,1.13
2023-04-13T18:03:23.538Z,1.50
2023-04-13T18:05:51.175Z,1.40
2023-04-13T18:08:19.338Z,1.30
2023-04-13T18:10:48.484Z,1.23
2023-04-13T18:13:16.705Z,1.03
2023-04-13T18:15:49.906Z,1.57
2023-04-13T18:18:17.746Z,1.30
2023-04-13T18:20:46.802Z,1.50
2023-04-13T18:23:14.656Z,1.47
2023-04-13T18:25:42.236Z,1.23
2023-04-13T18:28:11.024Z,1.20
2023-04-13T18:30:38.572Z,1.53
2023-04-13T18:33:06.136Z,1.10
2023-04-13T18:35:33.727Z,1.60
2023-04-13T18:38:01.286Z,2.87
2023-04-13T18:40:28.793Z,1.60
2023-04-13T18:43:01.139Z,1.60
2023-04-13T18:45:30.024Z,1.93
2023-04-13T18:47:57.543Z,1.63
2023-04-13T18:50:26.401Z,1.53
2023-04-13T18:52:57.027Z,1.70
2023-04-13T18:55:25.559Z,1.57
2023-04-13T18:57:53.341Z,1.80
2023-04-13T19:00:21.462Z,1.97
2023-04-13T19:02:52.418Z,1.83
2023-04-13T19:05:20.542Z,1.83
2023-04-13T19:07:58.373Z,2.10
2023-04-13T19:10:26.151Z,2.50
2023-04-13T19:12:53.741Z,2.20
2023-04-13T19:15:22.107Z,2.17
2023-04-13T19:17:52.057Z,2.07
2023-04-13T19:20:20.048Z,1.97
2023-04-13T19:22:47.513Z,1.70
2023-04-13T19:25:15.631Z,2.00
2023-04-13T19:27:44.515Z,2.47
2023-04-13T19:30:12.837Z,2.03
2023-04-13T19:32:42.002Z,2.10
2023-04-13T19:35:12.465Z,2.00
2023-04-13T19:37:40.549Z,2.00
2023-04-13T19:40:13.282Z,1.77
2023-04-13T19:42:42.162Z,1.60
2023-04-13T19:45:10.764Z,1.80
2023-04-13T19:47:38.998Z,1.80
2023-04-13T19:50:08.827Z,2.00
2023-04-13T19:52:38.665Z,3.13
2023-04-13T19:55:07.627Z,2.40
2023-04-13T19:57:36.702Z,1.57
2023-04-13T20:00:08.732Z,2.10
2023-04-13T20:02:37.273Z,1.80
2023-04-13T20:05:05.025Z,1.83
2023-04-13T20:07:32.648Z,1.90
2023-04-13T20:10:01.494Z,1.90
2023-04-13T20:12:29.010Z,2.00
2023-04-13T20:14:56.577Z,2.90
2023-04-13T20:17:24.160Z,1.97
2023-04-13T20:19:54.120Z,2.10
2023-04-13T20:22:21.711Z,1.90
2023-04-13T20:24:49.489Z,2.10
2023-04-13T20:27:18.413Z,2.13
2023-04-13T20:29:45.918Z,2.20
2023-04-13T20:32:13.424Z,1.70
2023-04-13T20:34:41.120Z,2.37
2023-04-13T20:37:10.265Z,2.53
2023-04-13T20:39:49.681Z,2.70
2023-04-13T20:42:19.857Z,2.40
2023-04-13T20:44:47.666Z,1.93
2023-04-13T20:47:15.327Z,1.90
2023-04-13T20:49:46.795Z,1.90
2023-04-13T20:52:18.560Z,2.73
2023-04-13T20:54:46.201Z,2.47
2023-04-13T20:57:14.448Z,1.93
2023-04-13T20:59:43.287Z,2.20
2023-04-13T21:02:11.498Z,1.63
2023-04-13T21:04:40.726Z,1.83
2023-04-13T21:07:11.013Z,3.00
2023-04-13T21:09:38.961Z,2.30
2023-04-13T21:12:06.607Z,2.00
2023-04-13T21:14:34.252Z,1.90
2023-04-13T21:17:03.517Z,1.80
2023-04-13T21:19:32.461Z,2.40
2023-04-13T21:22:00.253Z,2.20
2023-04-13T21:24:27.900Z,2.30
2023-04-13T21:26:56.517Z,1.83
2023-04-13T21:29:24.022Z,1.90
2023-04-13T21:31:51.865Z,2.27
2023-04-13T21:34:22.512Z,2.23
2023-04-13T21:36:52.030Z,2.00
2023-04-13T21:39:20.241Z,2.00
2023-04-13T21:41:47.884Z,1.73
2023-04-13T21:44:28.675Z,2.13
2023-04-13T21:46:57.142Z,2.10
2023-04-13T21:49:25.929Z,1.83
2023-04-13T21:51:53.567Z,2.03
2023-04-13T21:54:21.125Z,1.90
2023-04-13T21:56:49.891Z,1.83
2023-04-13T21:59:17.376Z,2.03
2023-04-13T22:01:45.834Z,2.53
2023-04-13T22:04:13.709Z,2.53
2023-04-13T22:06:43.104Z,2.77
2023-04-13T22:09:12.215Z,1.90
2023-04-13T22:11:40.741Z,2.53
2023-04-13T22:14:08.282Z,2.50
2023-04-13T22:16:35.810Z,2.00
2023-04-13T22:19:03.471Z,2.47
2023-04-13T22:21:31.344Z,2.30
2023-04-13T22:24:00.209Z,2.73
2023-04-13T22:26:28.033Z,2.47
2023-04-13T22:28:55.611Z,1.77
2023-04-13T22:31:23.081Z,1.97
2023-04-13T22:33:50.757Z,1.93
2023-04-13T22:36:19.804Z,2.20
2023-04-13T22:38:47.534Z,2.53
2023-04-13T22:41:16.597Z,1.70
2023-04-13T22:43:44.114Z,1.90
2023-04-13T22:46:12.025Z,1.60
2023-04-13T22:48:39.590Z,2.27
2023-04-13T22:51:07.365Z,2.10
2023-04-13T22:53:34.871Z,2.20
2023-04-13T22:56:02.322Z,2.10
2023-04-13T22:58:31.135Z,2.40
2023-04-13T23:00:59.337Z,2.60
2023-04-13T23:03:27.429Z,2.13
2023-04-13T23:05:55.080Z,2.63
2023-04-13T23:08:22.907Z,2.33
2023-04-13T23:10:50.391Z,2.67
2023-04-13T23:13:17.880Z,1.87
2023-04-13T23:15:46.768Z,2.30
2023-04-13T23:18:14.442Z,1.90
2023-04-13T23:20:42.041Z,2.30
2023-04-13T23:23:09.563Z,2.20
2023-04-13T23:25:37.292Z,2.07
2023-04-13T23:28:04.981Z,2.53
2023-04-13T23:30:32.564Z,2.63
2023-04-13T23:33:01.596Z,2.30
2023-04-13T23:35:29.203Z,2.00
2023-04-13T23:37:56.652Z,2.70
2023-04-13T23:40:24.185Z,2.27
2023-04-13T23:42:51.711Z,1.70
2023-04-13T23:45:19.227Z,1.93
2023-04-13T23:47:46.768Z,1.90
2023-04-13T23:50:17.788Z,2.50
2023-04-13T23:52:45.572Z,2.50
2023-04-13T23:55:13.080Z,1.70
2023-04-13T23:57:40.778Z,2.23
